Time;durP1;ratioP1;P1;durP2;ratioP2;P2;SDS_P1;SDS_P2;PMS_P1;PMS_P2;Temp;Humidity;BMP_temperature;BMP_pressure;BME280_temperature;BME280_humidity;BME280_pressure;Samples;Min_cycle;Max_cycle;Signal;HPM_P1;HPM_P2
2022/08/28 00:02:19;;;;;;;24.95;13.98;;;18.50;99.90;;;;;;5077069;28;20037;-58
2022/08/28 00:04:45;;;;;;;23.42;14.45;;;18.50;99.90;;;;;;5077339;28;20037;-58
2022/08/28 00:07:11;;;;;;;24.17;14.05;;;18.40;99.90;;;;;;5077177;28;20039;-58
2022/08/28 00:09:37;;;;;;;21.13;13.15;;;18.50;99.90;;;;;;5077312;28;20039;-58
2022/08/28 00:12:04;;;;;;;22.83;13.68;;;18.40;99.90;;;;;;5077194;28;20029;-58
2022/08/28 00:14:30;;;;;;;24.20;14.43;;;18.40;99.90;;;;;;5077107;28;20405;-58
2022/08/28 00:16:56;;;;;;;22.05;13.23;;;18.40;99.90;;;;;;5076968;28;20067;-58
2022/08/28 00:19:23;;;;;;;22.60;14.15;;;18.30;99.90;;;;;;5077122;28;20116;-57
2022/08/28 00:21:50;;;;;;;22.33;13.65;;;18.30;99.90;;;;;;5077081;28;20040;-57
2022/08/28 00:24:17;;;;;;;24.98;13.20;;;18.40;99.90;;;;;;5077360;28;20036;-57
2022/08/28 00:29:28;;;;;;;28.55;14.45;;;18.20;99.90;;;;;;5056811;28;20429;-58
2022/08/28 00:31:55;;;;;;;20.92;13.75;;;18.20;99.90;;;;;;5056847;28;20100;-57
2022/08/28 00:34:21;;;;;;;20.15;12.85;;;18.20;99.90;;;;;;5057147;28;20028;-57
2022/08/28 00:36:47;;;;;;;27.30;14.80;;;18.10;99.90;;;;;;5056779;28;20508;-57
2022/08/28 00:39:13;;;;;;;22.10;13.68;;;18.20;99.90;;;;;;5056695;28;20072;-57
2022/08/28 00:41:40;;;;;;;28.50;14.63;;;18.20;99.90;;;;;;5056755;28;20118;-58
2022/08/28 00:44:16;;;;;;;20.27;13.02;;;18.20;99.90;;;;;;5056499;28;20021;-57
2022/08/28 00:46:47;;;;;;;21.27;13.95;;;18.10;99.90;;;;;;5038886;28;20360;-57
2022/08/28 00:49:14;;;;;;;;;;;18.10;99.90;;;;;;5056795;28;20056;-57
2022/08/28 00:54:27;;;;;;;22.40;13.73;;;18.10;99.90;;;;;;5056376;28;20039;-57
2022/08/28 00:56:54;;;;;;;24.13;13.82;;;18.00;99.90;;;;;;5056293;28;20065;-57
2022/08/28 00:59:22;;;;;;;21.65;12.90;;;18.00;99.90;;;;;;5056381;28;20028;-58
2022/08/28 01:01:53;;;;;;;24.45;13.15;;;17.90;99.90;;;;;;5056432;28;20539;-57
2022/08/28 01:04:21;;;;;;;23.35;13.95;;;17.80;99.90;;;;;;5056047;28;20495;-57
2022/08/28 01:06:52;;;;;;;19.40;13.10;;;17.80;99.90;;;;;;5055714;28;20032;-58
2022/08/28 01:09:23;;;;;;;21.08;13.90;;;17.80;99.90;;;;;;5056159;28;20412;-58
2022/08/28 01:11:53;;;;;;;23.77;15.05;;;17.80;99.90;;;;;;5056123;28;20037;-57
2022/08/28 01:14:22;;;;;;;21.67;13.47;;;17.80;99.90;;;;;;5056209;28;20043;-57
2022/08/28 01:16:54;;;;;;;25.65;15.07;;;17.80;99.90;;;;;;5055940;28;20044;-57
2022/08/28 01:19:29;;;;;;;24.13;13.80;;;17.80;99.90;;;;;;5055942;28;20033;-58
2022/08/28 01:22:08;;;;;;;19.85;12.77;;;17.80;99.90;;;;;;5056032;28;20025;-57
2022/08/28 01:24:36;;;;;;;23.80;13.30;;;17.90;99.90;;;;;;5055889;28;20079;-57
2022/08/28 01:27:02;;;;;;;21.85;14.15;;;17.90;99.90;;;;;;5056592;28;20029;-57
2022/08/28 01:29:29;;;;;;;23.33;14.85;;;17.80;99.90;;;;;;5075791;28;20442;-57
2022/08/28 01:31:55;;;;;;;27.10;13.90;;;17.80;99.90;;;;;;5075661;28;20033;-57
2022/08/28 01:34:21;;;;;;;24.80;13.15;;;17.70;99.90;;;;;;5075645;28;20029;-57
2022/08/28 01:36:47;;;;;;;24.38;14.40;;;17.60;99.90;;;;;;5075567;28;20020;-57
2022/08/28 01:39:25;;;;;;;25.15;15.23;;;17.70;99.90;;;;;;5075657;28;20470;-57
2022/08/28 01:41:53;;;;;;;26.60;15.65;;;17.70;99.90;;;;;;5075619;28;20036;-57
2022/08/28 01:44:24;;;;;;;29.35;15.32;;;17.70;99.90;;;;;;5075571;28;20020;-57
2022/08/28 01:46:57;;;;;;;21.45;14.57;;;17.80;99.90;;;;;;5075343;28;20534;-57
2022/08/28 01:49:28;;;;;;;26.88;15.55;;;17.70;99.90;;;;;;5075476;28;20499;-57
2022/08/28 01:51:54;;;;;;;27.17;14.68;;;17.70;99.90;;;;;;5075430;28;20032;-57
2022/08/28 01:54:20;;;;;;;23.10;14.82;;;17.70;99.90;;;;;;5075250;28;20318;-57
2022/08/28 01:56:46;;;;;;;22.10;15.15;;;17.70;99.90;;;;;;5075276;28;20036;-57
2022/08/28 01:59:13;;;;;;;25.02;16.85;;;17.80;99.90;;;;;;5075238;28;20031;-57
2022/08/28 02:01:41;;;;;;;26.10;16.17;;;17.80;99.90;;;;;;5075294;28;20390;-57
2022/08/28 02:04:07;;;;;;;27.83;16.02;;;17.70;99.90;;;;;;5075168;28;20043;-57
2022/08/28 02:06:33;;;;;;;24.90;15.50;;;17.60;99.90;;;;;;5074905;28;20059;-57
2022/08/28 02:08:59;;;;;;;21.05;15.65;;;17.70;99.90;;;;;;5075084;28;20025;-57
2022/08/28 02:11:26;;;;;;;29.65;17.10;;;17.60;99.90;;;;;;5057329;28;20020;-57
2022/08/28 02:13:53;;;;;;;25.67;16.65;;;17.50;99.90;;;;;;5074841;28;20113;-57
2022/08/28 02:16:20;;;;;;;24.00;15.38;;;17.60;99.90;;;;;;5074770;28;20024;-57
2022/08/28 02:18:46;;;;;;;27.63;16.52;;;17.50;99.90;;;;;;5056875;28;20466;-57
2022/08/28 02:21:12;;;;;;;27.35;15.30;;;17.50;99.90;;;;;;5074908;28;20530;-57
2022/08/28 02:23:41;;;;;;;27.77;15.73;;;17.40;99.90;;;;;;5074748;28;20024;-57
2022/08/28 02:26:08;;;;;;;28.38;16.48;;;17.40;99.90;;;;;;5074818;28;20450;-57
2022/08/28 02:28:35;;;;;;;21.08;15.60;;;17.40;99.90;;;;;;5074805;28;20322;-57
2022/08/28 02:31:01;;;;;;;32.97;15.95;;;17.30;99.90;;;;;;5074548;28;20435;-57
2022/08/28 02:33:27;;;;;;;25.05;16.48;;;17.30;99.90;;;;;;5074949;28;20052;-57
2022/08/28 02:35:53;;;;;;;23.52;16.35;;;17.30;99.90;;;;;;5074603;28;20067;-57
2022/08/28 02:38:19;;;;;;;26.95;15.85;;;17.30;99.90;;;;;;5074742;28;20028;-57
2022/08/28 02:40:45;;;;;;;23.65;15.57;;;17.30;99.90;;;;;;5074543;28;20374;-57
2022/08/28 02:43:11;;;;;;;23.00;15.10;;;17.30;99.90;;;;;;5074349;28;20512;-57
2022/08/28 02:45:37;;;;;;;22.60;15.45;;;17.20;99.90;;;;;;5074782;28;20028;-57
2022/08/28 02:48:03;;;;;;;23.10;15.10;;;17.20;99.90;;;;;;5074649;28;20098;-58
2022/08/28 02:50:30;;;;;;;25.30;16.27;;;17.10;99.90;;;;;;5074578;28;20453;-57
2022/08/28 02:52:56;;;;;;;22.73;15.25;;;17.20;99.90;;;;;;5074480;28;20488;-57
2022/08/28 02:55:23;;;;;;;30.05;15.45;;;17.30;99.90;;;;;;5074221;28;20478;-57
2022/08/28 02:57:50;;;;;;;20.75;14.93;;;17.30;99.90;;;;;;5074407;28;20116;-57
2022/08/28 03:00:22;;;;;;;20.67;15.40;;;17.30;99.90;;;;;;5074335;28;20020;-57
2022/08/28 03:02:49;;;;;;;30.33;15.98;;;17.20;99.90;;;;;;5074396;28;20029;-57
2022/08/28 03:05:17;;;;;;;31.60;15.43;;;17.20;99.90;;;;;;5074356;28;20021;-57
2022/08/28 03:07:42;;;;;;;25.98;16.42;;;17.10;99.90;;;;;;5056286;28;20024;-57
2022/08/28 03:10:09;;;;;;;38.92;16.35;;;17.10;99.90;;;;;;5074418;28;20040;-57
2022/08/28 03:12:37;;;;;;;22.42;15.32;;;17.00;99.90;;;;;;5074286;28;20020;-57
2022/08/28 03:15:04;;;;;;;32.10;16.48;;;16.90;99.90;;;;;;5073996;28;20035;-57
2022/08/28 03:17:30;;;;;;;27.30;14.25;;;16.90;99.90;;;;;;5074077;28;20528;-57
2022/08/28 03:19:56;;;;;;;23.23;14.93;;;17.00;99.90;;;;;;5074078;28;20040;-57
2022/08/28 03:25:07;;;;;;;26.92;16.33;;;17.00;99.90;;;;;;5074094;28;20021;-57
2022/08/28 03:27:33;;;;;;;28.50;16.52;;;17.10;99.90;;;;;;5074092;28;20031;-57
2022/08/28 03:30:01;;;;;;;28.42;15.27;;;17.10;99.90;;;;;;5077259;28;20029;-57
2022/08/28 03:32:28;;;;;;;22.58;16.40;;;17.10;99.90;;;;;;5077933;28;20017;-57
2022/08/28 03:34:53;;;;;;;26.55;15.48;;;17.10;99.90;;;;;;5077917;28;20087;-57
2022/08/28 03:37:19;;;;;;;22.27;15.18;;;17.10;99.90;;;;;;5077867;28;20036;-57
2022/08/28 03:39:45;;;;;;;21.65;14.55;;;17.10;99.90;;;;;;5077923;28;20067;-57
2022/08/28 03:42:11;;;;;;;29.08;15.40;;;17.00;99.90;;;;;;5077665;28;20044;-58
2022/08/28 03:44:38;;;;;;;20.38;15.35;;;16.90;99.90;;;;;;5077814;28;20020;-57
2022/08/28 03:47:04;;;;;;;27.80;16.00;;;16.90;99.90;;;;;;5077831;28;20032;-57
2022/08/28 03:49:30;;;;;;;26.08;15.68;;;16.80;99.90;;;;;;5077561;28;20072;-57
2022/08/28 03:51:57;;;;;;;25.73;16.70;;;16.80;99.90;;;;;;5077667;28;20033;-57
2022/08/28 03:54:24;;;;;;;24.15;15.85;;;16.80;99.90;;;;;;5077596;28;20485;-57
2022/08/28 03:56:50;;;;;;;29.52;15.90;;;16.80;99.90;;;;;;5077572;28;20077;-57
2022/08/28 03:59:17;;;;;;;27.52;16.50;;;16.70;99.90;;;;;;5077232;28;20359;-57
2022/08/28 04:01:43;;;;;;;21.63;16.08;;;16.70;99.90;;;;;;5077398;28;20027;-57
2022/08/28 04:04:09;;;;;;;24.88;17.05;;;16.70;99.90;;;;;;5077376;28;20029;-57
2022/08/28 04:06:35;;;;;;;21.55;15.05;;;16.70;99.90;;;;;;5077206;28;20032;-57
2022/08/28 04:09:01;;;;;;;28.52;16.77;;;16.80;99.90;;;;;;5077153;28;20024;-57
2022/08/28 04:11:27;;;;;;;30.20;16.50;;;16.90;99.90;;;;;;5077276;28;20020;-57
2022/08/28 04:13:53;;;;;;;23.85;16.63;;;17.00;99.90;;;;;;5059465;28;20037;-57
2022/08/28 04:16:19;;;;;;;29.40;16.58;;;17.00;99.90;;;;;;5077175;28;20031;-57
2022/08/28 04:18:48;;;;;;;25.80;15.95;;;17.00;99.90;;;;;;5076881;28;20370;-57
2022/08/28 04:21:21;;;;;;;21.17;15.48;;;17.00;99.90;;;;;;5076990;28;20038;-57
2022/08/28 04:23:47;;;;;;;24.67;15.20;;;17.00;99.90;;;;;;5076899;28;20057;-57
2022/08/28 04:26:16;;;;;;;21.80;14.55;;;17.00;99.90;;;;;;5076912;28;20024;-57
2022/08/28 04:28:43;;;;;;;23.05;15.52;;;16.90;99.90;;;;;;5076913;28;20032;-57
2022/08/28 04:31:09;;;;;;;27.05;16.08;;;16.90;99.90;;;;;;5076699;28;20500;-57
2022/08/28 04:33:36;;;;;;;35.67;16.17;;;16.90;99.90;;;;;;5076965;28;20109;-57
2022/08/28 04:36:05;;;;;;;28.33;17.05;;;17.10;99.90;;;;;;5076708;28;20397;-57
2022/08/28 04:38:31;;;;;;;30.20;18.50;;;17.20;99.90;;;;;;5076887;28;20028;-57
2022/08/28 04:40:57;;;;;;;26.15;17.40;;;17.20;99.90;;;;;;5075430;28;20017;-57
2022/08/28 04:43:23;;;;;;;30.70;18.50;;;17.10;99.90;;;;;;5076551;28;20082;-57
2022/08/28 04:45:49;;;;;;;25.25;18.08;;;17.30;99.90;;;;;;5076552;28;20032;-57
2022/08/28 04:48:15;;;;;;;29.02;17.30;;;17.40;99.90;;;;;;5076351;28;20025;-58
2022/08/28 04:50:45;;;;;;;33.00;19.08;;;17.40;99.90;;;;;;5076769;28;20032;-57
2022/08/28 04:53:12;;;;;;;;;;;17.50;99.90;;;;;;5076999;28;20067;-57
2022/08/28 04:55:46;;;;;;;33.17;18.02;;;17.50;99.90;;;;;;5076463;28;19913;-57
2022/08/28 04:58:12;;;;;;;27.95;17.88;;;17.50;99.90;;;;;;5076282;28;20037;-57
2022/08/28 05:00:40;;;;;;;28.60;17.83;;;17.50;99.90;;;;;;5076481;28;20021;-57
2022/08/28 05:03:06;;;;;;;28.25;17.48;;;17.60;99.90;;;;;;5076408;28;20033;-57
2022/08/28 05:05:33;;;;;;;27.27;17.55;;;17.70;99.90;;;;;;5076307;28;20032;-57
2022/08/28 05:07:59;;;;;;;29.90;18.15;;;17.70;99.90;;;;;;5075867;28;20036;-57
2022/08/28 05:10:25;;;;;;;29.67;17.40;;;17.80;99.90;;;;;;5058349;28;20142;-57
2022/08/28 05:12:51;;;;;;;26.35;18.50;;;17.90;99.90;;;;;;5076006;28;20029;-57
2022/08/28 05:15:17;;;;;;;28.48;18.25;;;17.90;99.90;;;;;;5076080;28;20050;-57
2022/08/28 05:17:43;;;;;;;27.70;17.60;;;18.00;99.90;;;;;;5076104;28;20021;-57
2022/08/28 05:20:09;;;;;;;28.48;17.55;;;18.20;99.90;;;;;;5076026;28;20040;-57
2022/08/28 05:22:35;;;;;;;29.20;17.80;;;18.30;99.90;;;;;;5075851;28;20020;-57
2022/08/28 05:25:01;;;;;;;31.02;18.75;;;18.40;99.90;;;;;;5075968;28;20031;-57
2022/08/28 05:27:28;;;;;;;32.83;19.48;;;18.50;99.90;;;;;;5075855;28;20020;-57
2022/08/28 05:29:54;;;;;;;31.10;17.95;;;18.50;99.90;;;;;;5075694;28;20063;-57
2022/08/28 05:32:20;;;;;;;31.98;17.88;;;18.50;99.90;;;;;;5075850;28;20060;-57
2022/08/28 05:34:46;;;;;;;32.50;18.40;;;18.70;99.90;;;;;;5075686;28;20024;-57
2022/08/28 05:37:13;;;;;;;34.25;16.98;;;18.90;99.90;;;;;;5075529;28;20036;-57
2022/08/28 05:39:39;;;;;;;28.42;17.67;;;18.90;99.90;;;;;;5075791;28;20058;-57
2022/08/28 05:42:05;;;;;;;34.10;17.92;;;18.90;99.90;;;;;;5075388;28;20551;-57
2022/08/28 05:44:31;;;;;;;28.48;17.00;;;19.00;99.90;;;;;;5075722;28;20035;-57
2022/08/28 05:46:57;;;;;;;31.20;16.63;;;19.10;99.90;;;;;;5075561;28;20024;-57
2022/08/28 05:49:23;;;;;;;28.10;16.58;;;19.10;99.90;;;;;;5075289;28;20040;-57
2022/08/28 05:51:49;;;;;;;33.17;16.85;;;19.40;99.90;;;;;;5075021;28;20032;-57
2022/08/28 05:54:15;;;;;;;28.58;17.17;;;19.50;99.90;;;;;;5075181;28;20096;-57
2022/08/28 05:56:43;;;;;;;30.17;17.23;;;19.50;99.90;;;;;;5075063;28;20432;-57
2022/08/28 05:59:10;;;;;;;27.17;16.58;;;19.60;99.90;;;;;;5057513;28;20024;-57
2022/08/28 06:01:44;;;;;;;32.53;17.15;;;19.80;99.90;;;;;;5075340;28;20032;-57
2022/08/28 06:04:16;;;;;;;23.27;15.82;;;20.00;99.90;;;;;;5075082;28;20025;-57
2022/08/28 06:06:43;;;;;;;32.72;17.38;;;19.90;99.90;;;;;;5075029;28;20398;-57
2022/08/28 06:09:12;;;;;;;24.02;15.50;;;20.00;99.90;;;;;;5075378;28;20036;-57
2022/08/28 06:11:39;;;;;;;32.30;17.30;;;20.10;99.90;;;;;;5075077;28;20036;-57
2022/08/28 06:14:09;;;;;;;36.85;17.77;;;20.40;99.90;;;;;;5075028;28;20024;-57
2022/08/28 06:16:41;;;;;;;27.08;16.65;;;20.50;99.90;;;;;;5075285;28;20029;-57
2022/08/28 06:19:09;;;;;;;32.58;16.88;;;20.60;99.90;;;;;;5074724;28;20382;-57
2022/08/28 06:21:36;;;;;;;28.88;17.98;;;20.90;99.90;;;;;;5074839;28;20017;-57
2022/08/28 06:24:02;;;;;;;31.77;16.27;;;21.20;99.90;;;;;;5074783;28;20037;-58
2022/08/28 06:26:28;;;;;;;29.65;16.02;;;21.40;99.90;;;;;;5074869;28;20364;-57
2022/08/28 06:29:03;;;;;;;34.28;19.48;;;21.60;99.90;;;;;;5074774;28;20032;-57
2022/08/28 06:31:29;;;;;;;28.85;16.23;;;21.80;99.90;;;;;;5074797;28;20040;-57
2022/08/28 06:33:57;;;;;;;31.13;17.48;;;22.10;99.90;;;;;;5074776;28;20024;-57
2022/08/28 06:36:26;;;;;;;25.80;15.80;;;22.40;99.90;;;;;;5074607;28;20028;-57
2022/08/28 06:38:54;;;;;;;25.92;16.20;;;22.60;99.90;;;;;;5074760;28;20032;-57
2022/08/28 06:41:20;;;;;;;21.58;15.50;;;22.70;99.90;;;;;;5074745;28;20093;-58
2022/08/28 06:43:46;;;;;;;25.40;15.73;;;22.90;99.90;;;;;;5074443;28;20056;-57
2022/08/28 06:46:12;;;;;;;24.58;15.35;;;23.10;99.90;;;;;;5074543;28;20435;-57
2022/08/28 06:48:38;;;;;;;32.40;15.93;;;23.30;99.90;;;;;;5074421;28;20171;-57
2022/08/28 06:51:09;;;;;;;32.92;15.77;;;23.70;99.90;;;;;;5074591;28;20064;-57
2022/08/28 06:53:36;;;;;;;18.70;13.27;;;23.80;99.90;;;;;;5074378;28;20024;-57
2022/08/28 06:56:08;;;;;;;27.13;14.90;;;24.00;99.90;;;;;;5074286;28;20039;-57
2022/08/28 06:58:36;;;;;;;28.67;15.45;;;24.20;99.70;;;;;;5074398;28;20500;-57
2022/08/28 07:01:11;;;;;;;29.10;15.75;;;24.40;99.30;;;;;;5074390;28;20028;-57
2022/08/28 07:03:39;;;;;;;27.77;14.77;;;24.70;97.80;;;;;;5073557;28;20078;-57
2022/08/28 07:06:06;;;;;;;25.80;13.95;;;24.70;96.70;;;;;;5073879;28;20389;-57
2022/08/28 07:08:34;;;;;;;28.88;13.18;;;25.00;95.70;;;;;;5074218;28;20123;-58
2022/08/28 07:11:10;;;;;;;34.30;15.18;;;25.30;93.90;;;;;;5074252;28;20036;-58
2022/08/28 07:13:36;;;;;;;29.65;15.15;;;25.70;93.20;;;;;;5074302;28;20105;-58
2022/08/28 07:16:02;;;;;;;28.17;15.60;;;25.90;91.40;;;;;;5074024;28;20032;-58
2022/08/28 07:18:28;;;;;;;31.58;14.85;;;26.20;89.00;;;;;;5056185;28;20082;-58
2022/08/28 07:20:56;;;;;;;35.53;16.77;;;26.20;90.60;;;;;;5074130;28;20028;-58
2022/08/28 07:23:23;;;;;;;33.80;15.93;;;26.40;86.10;;;;;;5074191;28;20393;-58
2022/08/28 07:25:48;;;;;;;37.55;17.40;;;26.70;87.30;;;;;;5074266;28;20031;-58
2022/08/28 07:28:15;;;;;;;30.33;15.80;;;26.50;83.50;;;;;;5073777;28;20032;-58
2022/08/28 07:30:41;;;;;;;35.92;15.68;;;26.60;86.20;;;;;;5074000;28;20066;-58
2022/08/28 07:33:07;;;;;;;32.90;14.82;;;27.00;83.40;;;;;;5074278;28;20078;-58
2022/08/28 07:35:33;;;;;;;27.60;15.43;;;26.90;90.00;;;;;;5073932;28;20043;-58
2022/08/28 07:37:59;;;;;;;34.50;16.80;;;27.40;82.60;;;;;;5073887;28;20028;-58
2022/08/28 07:40:25;;;;;;;32.58;17.25;;;27.70;79.40;;;;;;5074095;28;20108;-58
2022/08/28 07:45:35;;;;;;;28.73;14.77;;;27.50;77.50;;;;;;5073744;28;20032;-58
2022/08/28 07:48:07;;;;;;;36.28;17.13;;;27.80;76.20;;;;;;5073855;28;20040;-58
2022/08/28 07:50:34;;;;;;;32.10;15.98;;;28.20;74.90;;;;;;5073836;28;20490;-58
2022/08/28 07:53:00;;;;;;;30.30;14.70;;;28.60;74.20;;;;;;5073643;28;20437;-58
2022/08/28 07:55:28;;;;;;;31.75;15.65;;;28.90;72.70;;;;;;5073529;28;20557;-58
2022/08/28 07:57:54;;;;;;;30.25;14.77;;;28.80;71.40;;;;;;5073812;28;20056;-58
2022/08/28 08:00:20;;;;;;;28.05;14.80;;;28.90;70.60;;;;;;5073996;28;20052;-58
2022/08/28 08:02:46;;;;;;;24.75;15.07;;;28.90;70.20;;;;;;5074101;28;20025;-58
2022/08/28 08:05:13;;;;;;;29.55;15.20;;;28.90;71.20;;;;;;5073660;28;20046;-58
2022/08/28 08:07:38;;;;;;;21.23;13.90;;;29.10;68.60;;;;;;5073630;28;20032;-58
2022/08/28 08:10:07;;;;;;;25.13;13.77;;;29.60;67.30;;;;;;5073869;28;20025;-58
2022/08/28 08:12:33;;;;;;;27.52;15.50;;;29.90;65.70;;;;;;5073711;28;20052;-58
2022/08/28 08:14:59;;;;;;;24.33;14.43;;;30.00;64.30;;;;;;5075110;28;20035;-58
2022/08/28 08:17:25;;;;;;;34.05;14.45;;;29.90;63.20;;;;;;5077045;28;20029;-58
2022/08/28 08:19:52;;;;;;;27.17;13.98;;;30.20;64.80;;;;;;5077161;28;20097;-58
2022/08/28 08:22:18;;;;;;;26.65;14.23;;;30.70;63.00;;;;;;5077050;28;20028;-58
2022/08/28 08:24:44;;;;;;;26.85;14.35;;;31.10;62.80;;;;;;5076891;28;20067;-59
2022/08/28 08:27:10;;;;;;;34.97;15.52;;;31.40;61.30;;;;;;5076986;28;20466;-58
2022/08/28 08:29:37;;;;;;;25.83;13.27;;;30.90;61.30;;;;;;5076947;28;20035;-58
2022/08/28 08:32:09;;;;;;;22.92;13.23;;;31.20;59.80;;;;;;5076857;28;20040;-58
2022/08/28 08:34:38;;;;;;;28.33;12.93;;;31.30;59.40;;;;;;5076677;28;20036;-58
2022/08/28 08:37:05;;;;;;;23.88;13.77;;;31.10;59.40;;;;;;5059006;28;20029;-59
2022/08/28 08:39:32;;;;;;;29.75;14.13;;;31.00;60.30;;;;;;5076857;28;20481;-58
2022/08/28 08:42:01;;;;;;;28.60;14.23;;;31.10;59.30;;;;;;5076636;28;20455;-59
2022/08/28 08:44:32;;;;;;;28.33;13.23;;;31.10;61.50;;;;;;5076749;28;20100;-59
2022/08/28 08:47:21;;;;;;;24.08;13.10;;;31.30;59.10;;;;;;5076760;28;20029;-59
2022/08/28 08:50:04;;;;;;;21.50;12.80;;;31.70;57.30;;;;;;5076219;28;20052;-59
2022/08/28 08:52:48;;;;;;;28.73;14.15;;;32.00;55.90;;;;;;5076806;28;20047;-59
2022/08/28 08:55:24;;;;;;;24.95;12.35;;;31.60;57.70;;;;;;5076346;28;20037;-59
2022/08/28 08:58:23;;;;;;;20.17;11.82;;;31.60;56.30;;;;;;5076468;28;20035;-59
2022/08/28 09:00:53;;;;;;;23.52;12.75;;;31.90;56.70;;;;;;5076331;28;20024;-59
2022/08/28 09:03:21;;;;;;;;;;;32.00;55.80;;;;;;5076743;28;20490;-58
2022/08/28 09:05:54;;;;;;;22.08;12.75;;;31.70;56.20;;;;;;5076313;28;20434;-59
2022/08/28 09:08:38;;;;;;;24.58;13.77;;;32.20;56.90;;;;;;5076163;28;20036;-59
2022/08/28 09:11:33;;;;;;;27.67;12.65;;;32.60;54.60;;;;;;5076250;28;20032;-59
2022/08/28 09:14:14;;;;;;;24.58;13.77;;;33.40;55.50;;;;;;5068721;28;20044;-59
2022/08/28 09:16:43;;;;;;;33.78;13.82;;;33.20;53.70;;;;;;5075906;28;20035;-59
2022/08/28 09:19:19;;;;;;;27.90;13.15;;;33.70;52.30;;;;;;5075895;28;20050;-59
2022/08/28 09:21:46;;;;;;;23.05;12.73;;;33.60;49.80;;;;;;5075643;28;20033;-59
2022/08/28 09:24:26;;;;;;;20.05;12.85;;;33.20;52.30;;;;;;5075919;28;20036;-59
2022/08/28 09:26:57;;;;;;;;;;;33.40;51.40;;;;;;5075677;28;20112;-59
2022/08/28 09:29:27;;;;;;;30.05;12.35;;;33.20;49.90;;;;;;5075822;28;20362;-59
2022/08/28 09:31:53;;;;;;;26.42;12.95;;;33.60;48.40;;;;;;5075977;28;20035;-59
2022/08/28 09:34:30;;;;;;;25.50;13.10;;;33.70;47.60;;;;;;5075794;28;20032;-59
2022/08/28 09:36:58;;;;;;;25.40;13.77;;;33.50;48.90;;;;;;5075613;28;20089;-59
2022/08/28 09:39:34;;;;;;;23.42;13.52;;;34.00;49.70;;;;;;5075558;28;20036;-59
2022/08/28 09:45:12;;;;;;;28.02;16.35;;;34.30;47.40;;;;;;5075694;28;20031;-59
2022/08/28 09:47:42;;;;;;;37.25;18.98;;;34.40;45.50;;;;;;5075276;28;20025;-59
2022/08/28 09:50:13;;;;;;;;;;;34.70;46.00;;;;;;5075568;28;20076;-59
2022/08/28 09:52:40;;;;;;;31.73;17.77;;;34.30;45.40;;;;;;5075434;28;19976;-59
2022/08/28 09:55:11;;;;;;;28.58;16.60;;;34.00;45.80;;;;;;5075155;28;20025;-59
2022/08/28 09:57:39;;;;;;;31.65;16.77;;;34.20;45.00;;;;;;5075047;28;20032;-59
2022/08/28 10:00:05;;;;;;;34.10;18.58;;;34.20;46.00;;;;;;5075346;28;20035;-59
2022/08/28 10:02:57;;;;;;;30.45;17.73;;;34.40;44.30;;;;;;5075087;28;20078;-59
2022/08/28 10:05:37;;;;;;;37.20;22.38;;;33.80;47.80;;;;;;5075097;28;20024;-59
2022/08/28 10:08:28;;;;;;;28.90;18.52;;;33.60;47.20;;;;;;5074901;28;20029;-59
2022/08/28 10:11:01;;;;;;;35.60;20.67;;;33.70;46.80;;;;;;5074393;28;20051;-59
2022/08/28 10:13:33;;;;;;;35.05;19.23;;;33.70;46.00;;;;;;5075119;28;20052;-59
2022/08/28 10:16:31;;;;;;;34.88;19.08;;;34.10;45.50;;;;;;5074904;28;20059;-59
2022/08/28 10:19:40;;;;;;;36.65;17.50;;;34.50;47.10;;;;;;5037526;28;20040;-59
2022/08/28 10:22:27;;;;;;;27.63;13.05;;;34.40;44.00;;;;;;5074840;28;20453;-59
2022/08/28 10:25:09;;;;;;;26.15;13.65;;;34.30;45.10;;;;;;5074864;28;20024;-59
2022/08/28 10:27:47;;;;;;;26.27;13.93;;;34.50;44.30;;;;;;5074442;28;20453;-59
2022/08/28 10:30:20;;;;;;;24.67;13.02;;;35.00;43.80;;;;;;5074744;28;20040;-59
2022/08/28 10:32:56;;;;;;;23.45;14.15;;;34.40;44.10;;;;;;5074691;28;20029;-59
2022/08/28 10:35:40;;;;;;;24.75;14.60;;;33.80;43.40;;;;;;5074861;28;20072;-59
2022/08/28 10:38:38;;;;;;;25.00;13.32;;;34.10;44.10;;;;;;5074821;28;20021;-59
2022/08/28 10:41:22;;;;;;;28.50;14.68;;;34.10;44.50;;;;;;5074426;28;20164;-59
2022/08/28 10:43:53;;;;;;;24.73;12.73;;;34.70;44.30;;;;;;5074568;28;20386;-59
2022/08/28 10:46:25;;;;;;;29.30;12.52;;;35.00;42.90;;;;;;5074316;28;20032;-59
2022/08/28 10:49:05;;;;;;;24.58;11.60;;;35.10;45.00;;;;;;5074463;28;20041;-59
2022/08/28 10:51:48;;;;;;;20.05;11.57;;;35.50;41.60;;;;;;5074443;28;20054;-59
2022/08/28 10:54:25;;;;;;;27.60;12.60;;;35.40;42.10;;;;;;5074350;28;20032;-59
2022/08/28 10:57:04;;;;;;;22.20;12.45;;;35.60;43.70;;;;;;5074292;28;20107;-59
2022/08/28 10:59:31;;;;;;;27.00;12.13;;;35.70;42.00;;;;;;5074370;28;20500;-59
2022/08/28 11:02:02;;;;;;;23.20;11.50;;;35.60;43.30;;;;;;5074092;28;20052;-59
2022/08/28 11:04:28;;;;;;;20.55;11.02;;;35.10;42.80;;;;;;5074205;28;20031;-59
2022/08/28 11:07:01;;;;;;;19.80;11.30;;;34.50;42.80;;;;;;5056286;28;20478;-59
2022/08/28 11:09:40;;;;;;;25.35;11.23;;;34.60;44.00;;;;;;5074273;28;20485;-59
2022/08/28 11:12:18;;;;;;;30.88;12.15;;;34.80;44.40;;;;;;5074316;28;20078;-59
2022/08/28 11:14:48;;;;;;;22.45;10.35;;;35.00;44.00;;;;;;5074242;28;20082;-60
2022/08/28 11:17:29;;;;;;;23.15;11.43;;;35.00;40.80;;;;;;5073971;28;20390;-59
2022/08/28 11:20:16;;;;;;;25.13;9.65;;;35.40;44.20;;;;;;5074710;28;20028;-60
2022/08/28 11:22:57;;;;;;;15.68;8.63;;;35.80;40.80;;;;;;5074156;28;20024;-60
2022/08/28 11:25:44;;;;;;;14.30;7.93;;;34.90;39.80;;;;;;5074156;28;20028;-60
2022/08/28 11:28:39;;;;;;;19.15;7.63;;;35.90;42.30;;;;;;5074281;28;20454;-60
2022/08/28 11:31:05;;;;;;;11.38;7.32;;;36.20;39.50;;;;;;5073787;28;20032;-60
2022/08/28 11:33:39;;;;;;;17.88;8.50;;;36.00;40.80;;;;;;5074029;28;20056;-60
2022/08/28 11:36:10;;;;;;;21.85;8.57;;;36.30;39.80;;;;;;5073952;28;20033;-60
2022/08/28 11:38:42;;;;;;;16.77;7.70;;;36.40;40.40;;;;;;5073801;28;20306;-60
2022/08/28 11:41:20;;;;;;;14.23;7.78;;;36.20;37.50;;;;;;5074136;28;20541;-60
2022/08/28 11:43:49;;;;;;;14.77;7.78;;;36.10;38.70;;;;;;5073976;28;20028;-59
2022/08/28 11:46:15;;;;;;;15.07;7.38;;;36.10;37.50;;;;;;5073992;28;20032;-60
2022/08/28 11:48:48;;;;;;;13.32;7.97;;;35.70;37.40;;;;;;5073736;28;20044;-60
2022/08/28 11:51:17;;;;;;;10.88;7.13;;;36.10;38.40;;;;;;5077453;28;20474;-60
2022/08/28 11:54:14;;;;;;;10.68;7.13;;;36.20;39.80;;;;;;5077704;28;20132;-60
2022/08/28 11:57:08;;;;;;;14.07;7.95;;;36.40;38.90;;;;;;5077635;28;20500;-60
2022/08/28 12:00:09;;;;;;;13.70;6.68;;;35.90;39.00;;;;;;5077852;28;20056;-60
2022/08/28 12:02:41;;;;;;;10.20;6.10;;;36.00;36.40;;;;;;5077325;28;20393;-60
2022/08/28 12:05:16;;;;;;;13.68;6.68;;;35.70;37.30;;;;;;5077570;28;20027;-60
2022/08/28 12:07:48;;;;;;;12.77;6.65;;;36.20;34.90;;;;;;5077212;28;20036;-60
2022/08/28 12:10:24;;;;;;;15.15;5.68;;;36.40;34.70;;;;;;5077208;28;20033;-60
2022/08/28 12:12:54;;;;;;;16.83;6.90;;;36.20;33.50;;;;;;5077299;28;20032;-60
2022/08/28 12:15:40;;;;;;;;;;;36.20;35.90;;;;;;5077765;28;20063;-60
2022/08/28 12:18:11;;;;;;;16.40;6.22;;;36.50;37.30;;;;;;5076618;28;19908;-60
2022/08/28 12:20:49;;;;;;;14.90;7.50;;;35.50;34.70;;;;;;5077285;28;20109;-60
2022/08/28 12:23:35;;;;;;;12.80;7.13;;;35.50;37.10;;;;;;5077052;28;20033;-60
2022/08/28 12:26:05;;;;;;;16.52;6.97;;;36.40;37.90;;;;;;5077222;28;20040;-60
2022/08/28 12:28:50;;;;;;;14.32;6.38;;;35.80;35.00;;;;;;5076988;28;20029;-60
2022/08/28 12:34:57;;;;;;;12.20;6.03;;;36.60;35.30;;;;;;5076730;28;20025;-60
2022/08/28 12:37:37;;;;;;;11.32;5.90;;;36.90;35.00;;;;;;5076796;28;20037;-60
2022/08/28 12:40:10;;;;;;;13.27;6.47;;;36.90;34.40;;;;;;5076837;28;20037;-60
2022/08/28 12:42:44;;;;;;;11.73;5.63;;;36.80;35.30;;;;;;5076671;28;20020;-60
2022/08/28 12:45:19;;;;;;;14.93;6.85;;;37.10;34.20;;;;;;5076689;28;20024;-60
2022/08/28 12:47:48;;;;;;;9.98;5.57;;;36.90;34.00;;;;;;5076758;28;20433;-60
2022/08/28 12:50:28;;;;;;;9.27;5.93;;;36.80;32.70;;;;;;5076659;28;20155;-60
2022/08/28 12:52:57;;;;;;;12.70;7.18;;;37.00;33.20;;;;;;5076573;28;20020;-60
2022/08/28 12:55:24;;;;;;;20.40;8.43;;;36.70;35.50;;;;;;5076499;28;20032;-60
2022/08/28 12:57:51;;;;;;;16.60;8.00;;;36.20;38.70;;;;;;5076525;28;20032;-60
2022/08/28 13:00:24;;;;;;;13.38;8.40;;;36.40;37.80;;;;;;5076182;28;20025;-60
2022/08/28 13:02:53;;;;;;;16.27;7.45;;;36.20;39.90;;;;;;5075562;28;20059;-60
2022/08/28 13:05:32;;;;;;;24.58;10.02;;;36.00;37.60;;;;;;5076204;28;20095;-60